Skip Navigation Links Skip Navigation Links

Current Weather

Lakehurst Naes /Maxfield Field/, Lakehurst, N.J.

For information only: do not use for flight planning or navigation.
Latest weather
Observation time Thursday, November 14, 2019 8:00 PM EST
Local time Thursday, November 14, 2019 8:10 PM EST
Flight conditions Visual Meteorological Conditions
Winds
Wind speed calm
Visibility 10 mi.
Sky condition
Ceiling unlimited
Sky clear
Temperature 30°F
Dewpoint 26°F
Altimeter 30.31 in.Hg
Derived measurements
Relative humidity 85%
Wind chill 30°F
Density altitude -2243 ft.
Sea-level pressure 30.31 in.Hg
Remarks
Fully automated report.
System requires maintenance.
Automated weather observing station with precipitation discriminator.
Freezing rain sensor not operating.
METAR KNEL 150100Z AUTO 00000KT 10SM CLR M01/M03 A3031 RMK AO2 SLP263 T10111033 FZRANO $

Settings

Location code

InnerDrive.Weather 4.0.6770.0 Release CLR 4.0.30319.42000
Copyright ©2018 Inner Drive Technology. All rights reserved. Portions Copyright ©1986-2018 David Braverman.

Find weather

Site navigation


Skip Navigation Links

Place info

Page info

PayPal - The safer, easier way to pay online!

Return home.

Copyright ©2019 Inner Drive Technology. Purveyors of fine, hand-crafted computer software. Page printed 2019-11-15T01:10:55 UTC.